createdAt,value
2019-03-31T00:00:05.545Z,7.81
2019-03-31T00:01:08.246Z,7.81
2019-03-31T00:02:05.192Z,7.75
2019-03-31T00:03:05.680Z,7.75
2019-03-31T00:04:05.430Z,7.75
2019-03-31T00:05:05.774Z,7.75
2019-03-31T00:06:05.342Z,7.75
2019-03-31T00:07:05.307Z,7.75
2019-03-31T00:08:05.529Z,7.75
2019-03-31T00:09:05.769Z,7.75
2019-03-31T00:10:05.918Z,7.69
2019-03-31T00:11:06.006Z,7.69
2019-03-31T00:12:05.601Z,7.69
2019-03-31T00:13:05.442Z,7.69
2019-03-31T00:14:06.040Z,7.62
2019-03-31T00:15:06.015Z,7.62
2019-03-31T00:16:05.437Z,7.62
2019-03-31T00:17:05.442Z,7.62
2019-03-31T00:18:05.676Z,7.62
2019-03-31T00:19:05.754Z,7.56
2019-03-31T00:20:05.185Z,7.56
2019-03-31T00:21:05.693Z,7.56
2019-03-31T00:22:05.206Z,7.56
2019-03-31T00:23:05.603Z,7.56
2019-03-31T00:24:05.555Z,7.50
2019-03-31T00:25:05.916Z,7.50
2019-03-31T00:26:05.431Z,7.50
2019-03-31T00:27:05.698Z,7.50
2019-03-31T00:28:06.731Z,7.50
2019-03-31T00:29:05.207Z,7.44
2019-03-31T00:30:05.855Z,7.44
2019-03-31T00:31:05.380Z,7.44
2019-03-31T00:32:05.595Z,7.44
2019-03-31T00:33:05.455Z,7.44
2019-03-31T00:34:05.600Z,7.38
2019-03-31T00:35:05.198Z,7.38
2019-03-31T00:36:05.517Z,7.31
2019-03-31T00:37:07.619Z,7.31
2019-03-31T00:38:05.685Z,7.31
2019-03-31T00:39:05.770Z,7.31
2019-03-31T00:40:05.351Z,7.25
2019-03-31T00:41:05.770Z,7.25
2019-03-31T00:42:05.850Z,7.25
2019-03-31T00:43:05.838Z,7.25
2019-03-31T00:44:05.345Z,7.25
2019-03-31T00:45:05.607Z,7.19
2019-03-31T00:46:05.219Z,7.19
2019-03-31T00:47:05.630Z,7.19
2019-03-31T00:48:05.675Z,7.12
2019-03-31T00:49:05.722Z,7.12
2019-03-31T00:50:05.687Z,7.12
2019-03-31T00:51:05.114Z,7.12
2019-03-31T00:52:05.620Z,7.06
2019-03-31T00:53:05.785Z,7.06
2019-03-31T00:54:05.859Z,7.06
2019-03-31T00:55:05.860Z,7.00
2019-03-31T00:56:05.426Z,7.00
2019-03-31T00:57:05.612Z,7.00
2019-03-31T00:58:05.677Z,6.94
2019-03-31T00:59:05.285Z,6.94
2019-03-31T01:00:05.782Z,6.94
2019-03-31T01:01:05.374Z,6.94
2019-03-31T01:02:05.755Z,6.94
2019-03-31T01:03:05.944Z,6.94
2019-03-31T01:04:05.209Z,6.94
2019-03-31T01:05:05.399Z,6.94
2019-03-31T01:06:05.916Z,6.88
2019-03-31T01:07:05.929Z,6.88
2019-03-31T01:08:05.600Z,6.88
2019-03-31T01:09:05.286Z,6.88
2019-03-31T01:10:05.764Z,6.88
2019-03-31T01:11:05.367Z,6.81
2019-03-31T01:12:05.936Z,6.81
2019-03-31T01:13:06.102Z,6.81
2019-03-31T01:14:05.531Z,6.81
2019-03-31T01:15:05.690Z,6.75
2019-03-31T01:16:05.455Z,6.75
2019-03-31T01:17:05.776Z,6.75
2019-03-31T01:18:05.995Z,6.75
2019-03-31T01:19:05.603Z,6.75
2019-03-31T01:20:05.520Z,6.75
2019-03-31T01:21:05.696Z,6.75
2019-03-31T01:22:05.689Z,6.75
2019-03-31T01:23:05.449Z,6.75
2019-03-31T01:24:06.089Z,6.75
2019-03-31T01:25:05.300Z,6.75
2019-03-31T01:26:05.463Z,6.81
2019-03-31T01:27:05.695Z,6.81
2019-03-31T01:28:05.756Z,6.81
2019-03-31T01:29:05.530Z,6.81
2019-03-31T01:30:05.371Z,6.81
2019-03-31T01:31:05.771Z,6.81
2019-03-31T01:32:05.504Z,6.81
2019-03-31T01:33:06.012Z,6.81
2019-03-31T01:34:05.674Z,6.81
2019-03-31T01:35:05.863Z,6.88
2019-03-31T01:36:05.917Z,6.81
2019-03-31T01:37:05.528Z,6.88
2019-03-31T01:38:06.002Z,6.88
2019-03-31T01:39:05.450Z,6.88
2019-03-31T01:40:06.079Z,6.88
2019-03-31T01:41:05.318Z,6.88
2019-03-31T01:42:05.440Z,6.88
2019-03-31T01:43:05.755Z,6.88
2019-03-31T01:44:05.373Z,6.94
2019-03-31T01:45:05.773Z,6.94
2019-03-31T01:46:05.874Z,6.94
2019-03-31T01:47:07.030Z,6.94
2019-03-31T01:48:05.590Z,6.94
2019-03-31T01:49:05.522Z,6.94
2019-03-31T01:50:06.041Z,6.94
2019-03-31T01:51:05.536Z,6.94
2019-03-31T01:52:05.758Z,6.94
2019-03-31T01:53:05.443Z,6.94
2019-03-31T01:54:05.593Z,6.94
2019-03-31T01:55:05.499Z,7.00
2019-03-31T01:56:05.929Z,7.00
2019-03-31T01:57:05.918Z,7.00
2019-03-31T01:58:05.285Z,7.00
2019-03-31T01:59:05.936Z,7.00
2019-03-31T02:00:05.917Z,7.06
2019-03-31T02:01:05.536Z,7.06
2019-03-31T02:02:05.765Z,7.06
2019-03-31T02:03:06.015Z,7.06
2019-03-31T02:04:06.105Z,7.00
2019-03-31T02:05:05.363Z,7.00
2019-03-31T02:06:05.541Z,7.00
2019-03-31T02:07:05.944Z,7.00
2019-03-31T02:08:06.001Z,7.00
2019-03-31T02:09:05.289Z,7.00
2019-03-31T02:10:05.680Z,7.00
2019-03-31T02:11:05.783Z,7.06
2019-03-31T02:12:05.838Z,7.06
2019-03-31T02:13:05.609Z,7.06
2019-03-31T02:14:05.593Z,7.06
2019-03-31T02:15:05.761Z,7.06
2019-03-31T02:16:05.949Z,7.06
2019-03-31T02:17:05.453Z,7.00
2019-03-31T02:18:05.530Z,7.00
2019-03-31T02:19:05.764Z,7.00
2019-03-31T02:20:05.280Z,7.00
2019-03-31T02:21:05.696Z,6.94
2019-03-31T02:22:05.931Z,6.94
2019-03-31T02:23:06.107Z,7.00
2019-03-31T02:24:05.203Z,6.94
2019-03-31T02:25:05.388Z,6.94
2019-03-31T02:26:06.006Z,6.94
2019-03-31T02:27:05.291Z,6.94
2019-03-31T02:28:05.772Z,6.94
2019-03-31T02:29:06.100Z,6.88
2019-03-31T02:30:05.210Z,6.88
2019-03-31T02:31:05.378Z,6.88
2019-03-31T02:32:22.424Z,6.81
2019-03-31T02:33:05.298Z,6.81
2019-03-31T02:34:05.364Z,6.81
2019-03-31T02:35:05.129Z,6.81
2019-03-31T02:36:05.604Z,6.81
2019-03-31T02:37:05.944Z,6.81
2019-03-31T02:38:05.917Z,6.75
2019-03-31T02:39:05.392Z,6.75
2019-03-31T02:40:05.789Z,6.75
2019-03-31T02:41:05.845Z,6.75
2019-03-31T02:42:05.450Z,6.75
2019-03-31T02:43:05.677Z,6.69
2019-03-31T02:44:05.434Z,6.69
2019-03-31T02:45:05.613Z,6.69
2019-03-31T02:46:05.129Z,6.69
2019-03-31T02:47:05.665Z,6.62
2019-03-31T02:48:05.699Z,6.62
2019-03-31T02:49:05.756Z,6.56
2019-03-31T02:50:05.853Z,6.56
2019-03-31T02:51:05.524Z,6.56
2019-03-31T02:52:05.533Z,6.56
2019-03-31T02:53:05.600Z,6.56
2019-03-31T02:54:05.770Z,6.56
2019-03-31T02:55:05.217Z,6.50
2019-03-31T02:56:06.112Z,6.50
2019-03-31T02:57:05.208Z,6.50
2019-03-31T02:58:05.456Z,6.50
2019-03-31T02:59:06.010Z,6.44
2019-03-31T03:00:05.764Z,6.44
2019-03-31T03:01:05.547Z,6.44
2019-03-31T03:02:05.530Z,6.44
2019-03-31T03:03:05.846Z,6.38
2019-03-31T03:04:07.844Z,6.38
2019-03-31T03:05:18.328Z,6.38
2019-03-31T03:06:05.778Z,6.38
2019-03-31T03:07:05.921Z,6.31
2019-03-31T03:08:05.771Z,6.31
2019-03-31T03:09:05.371Z,6.25
2019-03-31T03:10:05.799Z,6.25
2019-03-31T03:11:05.841Z,6.25
2019-03-31T03:12:05.456Z,6.19
2019-03-31T03:13:05.266Z,6.19
2019-03-31T03:14:05.640Z,6.19
2019-03-31T03:15:05.761Z,6.19
2019-03-31T03:16:05.937Z,6.19
2019-03-31T03:17:06.003Z,6.19
2019-03-31T03:18:05.204Z,6.12
2019-03-31T03:19:05.679Z,6.12
2019-03-31T03:20:05.217Z,6.12
2019-03-31T03:21:05.525Z,6.06
2019-03-31T03:22:05.966Z,6.06
2019-03-31T03:23:05.853Z,6.06
2019-03-31T03:24:05.953Z,6.06
2019-03-31T03:25:05.138Z,6.06
2019-03-31T03:26:05.441Z,6.06
2019-03-31T03:27:05.841Z,6.00
2019-03-31T03:28:06.106Z,6.00
2019-03-31T03:29:05.292Z,6.00
2019-03-31T03:30:05.699Z,6.00
2019-03-31T03:31:07.864Z,6.00
2019-03-31T03:32:06.692Z,6.00
2019-03-31T03:33:15.368Z,6.00
2019-03-31T03:34:05.772Z,6.00
2019-03-31T03:35:05.529Z,6.00
2019-03-31T03:36:05.761Z,5.94
2019-03-31T03:37:05.124Z,5.94
2019-03-31T03:38:05.406Z,5.94
2019-03-31T03:39:05.935Z,5.94
2019-03-31T03:40:05.841Z,5.94
2019-03-31T03:41:05.434Z,5.94
2019-03-31T03:42:05.781Z,5.94
2019-03-31T03:43:05.279Z,5.88
2019-03-31T03:44:05.698Z,5.88
2019-03-31T03:45:05.857Z,5.88
2019-03-31T03:46:05.283Z,5.88
2019-03-31T03:47:05.760Z,5.88
2019-03-31T03:48:05.266Z,5.88
2019-03-31T03:49:05.715Z,5.88
2019-03-31T03:50:05.828Z,5.88
2019-03-31T03:51:05.207Z,5.88
2019-03-31T03:52:05.558Z,5.81
2019-03-31T03:53:05.345Z,5.81
2019-03-31T03:54:05.908Z,5.81
2019-03-31T03:55:05.199Z,5.81
2019-03-31T03:56:05.139Z,5.81
2019-03-31T03:57:05.387Z,5.75
2019-03-31T03:58:05.685Z,5.81
2019-03-31T03:59:05.932Z,5.81
2019-03-31T04:00:05.922Z,5.81
2019-03-31T04:01:05.532Z,5.81
2019-03-31T04:02:05.955Z,5.75
2019-03-31T04:03:05.849Z,5.75
2019-03-31T04:04:06.011Z,5.75
2019-03-31T04:05:05.689Z,5.75
2019-03-31T04:06:05.758Z,5.69
2019-03-31T04:07:05.618Z,5.69
2019-03-31T04:08:05.917Z,5.69
2019-03-31T04:09:05.284Z,5.69
2019-03-31T04:10:05.693Z,5.69
2019-03-31T04:11:05.933Z,5.69
2019-03-31T04:12:05.361Z,5.69
2019-03-31T04:13:05.126Z,5.69
2019-03-31T04:14:05.452Z,5.69
2019-03-31T04:15:05.846Z,5.69
2019-03-31T04:16:05.377Z,5.62
2019-03-31T04:17:05.447Z,5.62
2019-03-31T04:18:05.672Z,5.56
2019-03-31T04:19:06.099Z,5.56
2019-03-31T04:20:05.611Z,5.56
2019-03-31T04:21:05.923Z,5.56
2019-03-31T04:22:05.442Z,5.56
2019-03-31T04:23:06.010Z,5.56
2019-03-31T04:24:06.021Z,5.56
2019-03-31T04:25:06.042Z,5.56
2019-03-31T04:26:05.706Z,5.56
2019-03-31T04:27:05.234Z,5.56
2019-03-31T04:28:05.367Z,5.56
2019-03-31T04:29:05.697Z,5.50
2019-03-31T04:30:05.947Z,5.50
2019-03-31T04:31:06.006Z,5.50
2019-03-31T04:32:05.368Z,5.50
2019-03-31T04:33:05.754Z,5.50
2019-03-31T04:34:06.015Z,5.44
2019-03-31T04:35:05.836Z,5.44
2019-03-31T04:36:05.902Z,5.44
2019-03-31T04:37:05.287Z,5.50
2019-03-31T04:38:06.020Z,5.56
2019-03-31T04:39:05.679Z,5.56
2019-03-31T04:40:05.677Z,5.50
2019-03-31T04:41:06.068Z,5.44
2019-03-31T04:42:05.772Z,5.44
2019-03-31T04:43:05.921Z,5.50
2019-03-31T04:44:05.366Z,5.44
2019-03-31T04:45:05.745Z,5.81
2019-03-31T04:46:05.690Z,6.00
2019-03-31T04:47:06.815Z,5.88
2019-03-31T04:48:06.012Z,5.75
2019-03-31T04:49:05.599Z,5.69
2019-03-31T04:50:05.688Z,5.62
2019-03-31T04:51:05.939Z,5.62
2019-03-31T04:52:05.125Z,5.56
2019-03-31T04:53:05.845Z,5.50
2019-03-31T04:54:06.081Z,5.62
2019-03-31T04:55:05.760Z,5.81
2019-03-31T04:56:06.276Z,6.00
2019-03-31T04:57:05.362Z,6.12
2019-03-31T04:58:05.770Z,6.25
2019-03-31T04:59:05.993Z,6.31
2019-03-31T05:00:05.934Z,6.44
2019-03-31T05:01:05.681Z,6.44
2019-03-31T05:02:05.694Z,6.38
2019-03-31T05:03:05.997Z,6.31
2019-03-31T05:04:05.657Z,6.38
2019-03-31T05:05:05.462Z,6.25
2019-03-31T05:06:05.849Z,6.25
2019-03-31T05:07:05.288Z,6.19
2019-03-31T05:08:05.370Z,6.19
2019-03-31T05:09:06.099Z,6.25
2019-03-31T05:10:06.146Z,6.19
2019-03-31T05:11:05.988Z,6.06
2019-03-31T05:12:05.289Z,5.94
2019-03-31T05:13:05.786Z,6.00
2019-03-31T05:14:05.380Z,5.94
2019-03-31T05:15:05.537Z,5.88
2019-03-31T05:16:06.894Z,5.88
2019-03-31T05:17:05.615Z,5.94
2019-03-31T05:18:05.761Z,6.06
2019-03-31T05:19:05.368Z,6.19
2019-03-31T05:20:06.108Z,6.19
2019-03-31T05:21:05.534Z,6.31
2019-03-31T05:22:05.713Z,6.25
2019-03-31T05:23:05.926Z,6.19
2019-03-31T05:24:06.011Z,6.12
2019-03-31T05:25:05.769Z,6.12
2019-03-31T05:26:05.198Z,6.19
2019-03-31T05:27:05.760Z,6.25
2019-03-31T05:28:06.009Z,6.31
2019-03-31T05:29:06.081Z,6.38
2019-03-31T05:30:05.466Z,6.44
2019-03-31T05:31:05.594Z,6.50
2019-03-31T05:32:05.377Z,6.69
2019-03-31T05:33:05.695Z,6.88
2019-03-31T05:34:18.295Z,7.00
2019-03-31T05:35:06.012Z,7.25
2019-03-31T05:36:05.294Z,7.44
2019-03-31T05:37:05.985Z,7.75
2019-03-31T05:38:05.448Z,8.06
2019-03-31T05:39:05.827Z,8.25
2019-03-31T05:40:05.918Z,8.38
2019-03-31T05:41:05.508Z,8.56
2019-03-31T05:42:06.025Z,8.69
2019-03-31T05:43:05.350Z,8.81
2019-03-31T05:44:06.175Z,8.94
2019-03-31T05:45:05.922Z,9.00
2019-03-31T05:46:05.633Z,9.06
2019-03-31T05:47:05.103Z,9.19
2019-03-31T05:48:05.353Z,9.25
2019-03-31T05:49:05.998Z,9.19
2019-03-31T05:50:05.287Z,9.25
2019-03-31T05:51:05.756Z,9.44
2019-03-31T05:52:05.314Z,9.69
2019-03-31T05:53:05.777Z,9.69
2019-03-31T05:54:05.362Z,9.81
2019-03-31T05:55:05.826Z,10.12
2019-03-31T05:56:05.380Z,10.38
2019-03-31T05:57:09.583Z,10.31
2019-03-31T05:58:05.554Z,10.31
2019-03-31T05:59:06.007Z,10.31
2019-03-31T06:00:05.939Z,10.31
2019-03-31T06:01:06.006Z,10.38
2019-03-31T06:02:05.527Z,10.38
2019-03-31T06:03:05.855Z,10.44
2019-03-31T06:04:06.180Z,10.50
2019-03-31T06:05:05.768Z,10.81
2019-03-31T06:06:05.292Z,10.81
2019-03-31T06:07:06.032Z,10.75
2019-03-31T06:08:05.190Z,10.88
2019-03-31T06:09:09.719Z,10.94
2019-03-31T06:10:05.762Z,11.00
2019-03-31T06:11:05.296Z,11.06
2019-03-31T06:12:05.566Z,11.19
2019-03-31T06:13:05.189Z,11.31
2019-03-31T06:14:05.776Z,11.38
2019-03-31T06:15:05.538Z,11.44
2019-03-31T06:16:05.838Z,11.44
2019-03-31T06:17:05.767Z,11.56
2019-03-31T06:18:05.142Z,11.62
2019-03-31T06:19:05.785Z,11.75
2019-03-31T06:20:06.101Z,11.81
2019-03-31T06:21:05.766Z,11.81
2019-03-31T06:22:05.532Z,11.88
2019-03-31T06:23:05.290Z,11.94
2019-03-31T06:24:05.518Z,12.06
2019-03-31T06:25:05.980Z,12.12
2019-03-31T06:26:05.367Z,12.19
2019-03-31T06:27:05.953Z,12.25
2019-03-31T06:28:06.172Z,12.31
2019-03-31T06:29:05.606Z,12.50
2019-03-31T06:30:05.528Z,12.62
2019-03-31T06:31:05.527Z,12.69
2019-03-31T06:32:05.681Z,12.75
2019-03-31T06:33:05.603Z,12.88
2019-03-31T06:34:05.863Z,12.94
2019-03-31T06:35:05.999Z,13.00
2019-03-31T06:36:05.607Z,13.12
2019-03-31T06:37:05.360Z,13.19
2019-03-31T06:38:06.091Z,13.25
2019-03-31T06:39:05.771Z,13.38
2019-03-31T06:40:05.358Z,13.44
2019-03-31T06:41:05.742Z,13.56
2019-03-31T06:42:05.448Z,13.62
2019-03-31T06:43:05.682Z,13.75
2019-03-31T06:44:06.077Z,13.81
2019-03-31T06:45:05.766Z,13.94
2019-03-31T06:46:05.754Z,14.00
2019-03-31T06:47:05.520Z,14.12
2019-03-31T06:48:05.998Z,14.25
2019-03-31T06:49:05.282Z,14.38
2019-03-31T06:50:05.769Z,14.50
2019-03-31T06:51:05.366Z,14.56
2019-03-31T06:52:05.131Z,14.69
2019-03-31T06:53:05.526Z,14.75
2019-03-31T06:54:05.684Z,14.88
2019-03-31T06:55:05.431Z,14.94
2019-03-31T06:56:05.123Z,15.06
2019-03-31T06:57:05.539Z,15.06
2019-03-31T06:58:05.931Z,15.38
2019-03-31T06:59:06.018Z,15.38
2019-03-31T07:00:05.377Z,15.50
2019-03-31T07:01:05.924Z,15.56
2019-03-31T07:02:06.098Z,15.62
2019-03-31T07:03:05.923Z,15.69
2019-03-31T07:04:05.776Z,15.75
2019-03-31T07:05:06.083Z,15.75
2019-03-31T07:06:05.359Z,15.81
2019-03-31T07:07:05.601Z,15.88
2019-03-31T07:08:06.035Z,15.88
2019-03-31T07:09:05.998Z,16.00
2019-03-31T07:10:05.609Z,16.06
2019-03-31T07:11:05.434Z,16.06
2019-03-31T07:12:05.356Z,16.12
2019-03-31T07:13:08.756Z,16.19
2019-03-31T07:14:05.448Z,16.25
2019-03-31T07:15:05.394Z,16.31
2019-03-31T07:16:06.030Z,16.44
2019-03-31T07:17:05.696Z,16.50
2019-03-31T07:18:05.914Z,16.56
2019-03-31T07:19:06.082Z,16.62
2019-03-31T07:20:08.830Z,16.69
2019-03-31T07:21:05.450Z,16.81
2019-03-31T07:22:06.093Z,17.06
2019-03-31T07:23:05.774Z,17.25
2019-03-31T07:24:05.368Z,17.38
2019-03-31T07:25:05.765Z,17.44
2019-03-31T07:26:06.496Z,17.50
2019-03-31T07:27:05.851Z,17.56
2019-03-31T07:28:05.485Z,17.75
2019-03-31T07:29:05.459Z,17.88
2019-03-31T07:30:07.236Z,17.88
2019-03-31T07:31:06.015Z,17.88
2019-03-31T07:32:06.010Z,17.94
2019-03-31T07:33:05.611Z,17.94
2019-03-31T07:34:06.100Z,18.00
2019-03-31T07:35:17.756Z,18.06
2019-03-31T07:36:05.625Z,18.06
2019-03-31T07:37:05.598Z,18.06
2019-03-31T07:38:05.354Z,18.06
2019-03-31T07:39:05.992Z,18.06
2019-03-31T07:40:05.985Z,18.12
2019-03-31T07:41:12.300Z,18.12
2019-03-31T07:42:07.439Z,18.19
2019-03-31T07:43:06.143Z,18.19
2019-03-31T07:44:05.774Z,18.25
2019-03-31T07:45:05.633Z,18.19
2019-03-31T07:46:05.382Z,18.25
2019-03-31T07:47:05.823Z,18.25
2019-03-31T07:48:08.059Z,18.31
2019-03-31T07:49:06.712Z,18.44
2019-03-31T07:50:05.370Z,18.44
2019-03-31T07:51:05.204Z,18.50
2019-03-31T07:52:05.773Z,18.50
2019-03-31T07:53:05.433Z,18.50
2019-03-31T07:54:06.343Z,18.56
2019-03-31T07:55:05.446Z,18.56
2019-03-31T07:56:05.875Z,18.56
2019-03-31T07:57:07.056Z,18.62
2019-03-31T07:58:05.916Z,18.62
2019-03-31T07:59:05.533Z,18.69
2019-03-31T08:00:05.834Z,18.69
2019-03-31T08:01:05.283Z,18.69
2019-03-31T08:02:05.690Z,18.69
2019-03-31T08:03:06.140Z,18.75
2019-03-31T08:04:05.709Z,18.81
2019-03-31T08:05:05.116Z,18.88
2019-03-31T08:06:06.092Z,18.88
2019-03-31T08:07:05.680Z,18.94
2019-03-31T08:08:06.182Z,19.12
2019-03-31T08:09:05.687Z,19.12
2019-03-31T08:10:05.930Z,19.12
2019-03-31T08:11:05.195Z,19.19
2019-03-31T08:12:06.007Z,19.12
2019-03-31T08:13:05.951Z,19.12
2019-03-31T08:14:06.185Z,19.06
2019-03-31T08:15:05.451Z,19.06
2019-03-31T08:16:06.107Z,19.06
2019-03-31T08:17:05.373Z,19.06
2019-03-31T08:18:05.734Z,19.06
2019-03-31T08:19:05.916Z,19.00
2019-03-31T08:20:05.733Z,19.00
2019-03-31T08:21:05.322Z,18.94
2019-03-31T08:22:05.695Z,18.94
2019-03-31T08:23:05.837Z,18.94
2019-03-31T08:24:06.713Z,18.81
2019-03-31T08:25:05.604Z,18.62
2019-03-31T08:26:05.347Z,18.56
2019-03-31T08:27:05.834Z,18.38
2019-03-31T08:28:05.609Z,18.25
2019-03-31T08:29:05.205Z,18.19
2019-03-31T08:30:05.525Z,18.00
2019-03-31T08:31:06.036Z,18.06
2019-03-31T08:32:05.934Z,18.06
2019-03-31T08:33:06.178Z,18.00
2019-03-31T08:34:05.228Z,17.94
2019-03-31T08:35:06.007Z,17.94
2019-03-31T08:36:05.298Z,17.88
2019-03-31T08:37:05.454Z,17.81
2019-03-31T08:38:06.722Z,17.75
2019-03-31T08:39:05.783Z,17.69
2019-03-31T08:40:05.682Z,17.62
2019-03-31T08:41:06.207Z,17.56
2019-03-31T08:42:05.118Z,17.50
2019-03-31T08:43:06.908Z,17.50
2019-03-31T08:44:05.708Z,17.44
2019-03-31T08:45:06.185Z,17.38
2019-03-31T08:46:05.780Z,17.25
2019-03-31T08:47:05.195Z,17.19
2019-03-31T08:48:07.295Z,17.06
2019-03-31T08:49:06.097Z,17.00
2019-03-31T08:50:06.079Z,16.94
2019-03-31T08:51:05.047Z,16.81
2019-03-31T08:52:05.930Z,16.81
2019-03-31T08:53:05.519Z,16.81
2019-03-31T08:54:05.932Z,16.81
2019-03-31T08:55:05.466Z,16.69
2019-03-31T08:56:08.544Z,16.62
2019-03-31T08:57:05.383Z,16.62
2019-03-31T08:58:06.004Z,16.56
2019-03-31T08:59:06.020Z,16.50
2019-03-31T09:00:05.365Z,16.50
2019-03-31T09:01:06.193Z,16.50
2019-03-31T09:02:05.201Z,16.44
2019-03-31T09:03:06.073Z,16.44
2019-03-31T09:04:05.210Z,16.38
2019-03-31T09:05:05.875Z,16.31
2019-03-31T09:06:06.072Z,16.25
2019-03-31T09:07:05.613Z,16.25
2019-03-31T09:08:05.354Z,16.19
2019-03-31T09:09:05.849Z,16.06
2019-03-31T09:10:05.359Z,16.06
2019-03-31T09:11:05.695Z,16.00
2019-03-31T09:12:05.286Z,15.94
2019-03-31T09:13:05.863Z,15.94
2019-03-31T09:14:05.222Z,15.94
2019-03-31T09:15:05.759Z,16.00
2019-03-31T09:16:06.073Z,16.00
2019-03-31T09:17:05.765Z,16.06
2019-03-31T09:18:05.452Z,16.00
2019-03-31T09:19:05.287Z,16.00
2019-03-31T09:20:06.085Z,16.00
2019-03-31T09:21:05.455Z,16.00
2019-03-31T09:22:05.598Z,15.94
2019-03-31T09:23:05.850Z,15.94
2019-03-31T09:24:05.928Z,16.00
2019-03-31T09:25:06.107Z,16.00
2019-03-31T09:26:05.699Z,16.00
2019-03-31T09:27:05.219Z,15.94
2019-03-31T09:28:05.854Z,15.88
2019-03-31T09:29:05.927Z,15.69
2019-03-31T09:30:05.758Z,15.62
2019-03-31T09:31:05.770Z,15.56
2019-03-31T09:32:05.476Z,15.50
2019-03-31T09:33:05.642Z,15.50
2019-03-31T09:34:05.692Z,15.44
2019-03-31T09:35:05.941Z,15.44
2019-03-31T09:36:15.801Z,15.44
2019-03-31T09:37:05.469Z,15.44
2019-03-31T09:38:05.379Z,15.44
2019-03-31T09:39:05.378Z,15.44
2019-03-31T09:40:05.281Z,15.50
2019-03-31T09:41:05.772Z,15.50
2019-03-31T09:42:05.370Z,15.50
2019-03-31T09:43:05.439Z,15.50
2019-03-31T09:44:06.019Z,15.56
2019-03-31T09:45:05.381Z,15.56
2019-03-31T09:46:05.430Z,15.62
2019-03-31T09:47:05.140Z,15.56
2019-03-31T09:48:05.837Z,15.56
2019-03-31T09:49:05.934Z,15.50
2019-03-31T09:50:05.198Z,15.50
2019-03-31T09:51:06.379Z,15.50
2019-03-31T09:52:05.296Z,15.50
2019-03-31T09:53:06.018Z,15.50
2019-03-31T09:54:05.367Z,15.31
2019-03-31T09:55:05.528Z,15.38
2019-03-31T09:56:05.437Z,15.31
2019-03-31T09:57:06.087Z,15.31
2019-03-31T09:58:05.460Z,15.31
2019-03-31T09:59:05.763Z,15.31
2019-03-31T10:00:06.072Z,15.31
2019-03-31T10:01:07.992Z,15.31
2019-03-31T10:02:06.116Z,15.25
2019-03-31T10:03:05.781Z,15.19
2019-03-31T10:04:05.279Z,15.12
2019-03-31T10:05:06.190Z,15.00
2019-03-31T10:06:10.848Z,14.94
2019-03-31T10:07:05.768Z,14.88
2019-03-31T10:08:06.089Z,14.88
2019-03-31T10:09:05.269Z,14.88
2019-03-31T10:10:05.936Z,14.88
2019-03-31T10:11:06.007Z,14.81
2019-03-31T10:12:05.936Z,14.88
2019-03-31T10:13:05.445Z,14.94
2019-03-31T10:14:06.089Z,14.88
2019-03-31T10:15:06.095Z,14.94
2019-03-31T10:16:05.309Z,14.94
2019-03-31T10:17:05.611Z,14.94
2019-03-31T10:18:05.276Z,15.00
2019-03-31T10:19:05.927Z,15.00
2019-03-31T10:20:05.669Z,15.06
2019-03-31T10:21:05.949Z,15.06
2019-03-31T10:22:06.018Z,15.06
2019-03-31T10:23:06.516Z,15.06
2019-03-31T10:24:05.926Z,15.00
2019-03-31T10:25:05.368Z,15.00
2019-03-31T10:26:05.943Z,14.94
2019-03-31T10:27:05.586Z,14.94
2019-03-31T10:28:05.682Z,14.88
2019-03-31T10:29:05.212Z,14.88
2019-03-31T10:30:05.435Z,14.88
2019-03-31T10:31:06.093Z,14.81
2019-03-31T10:32:05.664Z,14.81
2019-03-31T10:33:05.690Z,14.69
2019-03-31T10:34:06.011Z,14.69
2019-03-31T10:35:05.216Z,14.69
2019-03-31T10:36:05.442Z,14.69
2019-03-31T10:37:05.609Z,14.69
2019-03-31T10:38:06.007Z,14.75
2019-03-31T10:39:05.364Z,14.69
2019-03-31T10:40:05.921Z,14.69
2019-03-31T10:41:06.095Z,14.62
2019-03-31T10:42:05.606Z,14.44
2019-03-31T10:43:05.761Z,14.31
2019-03-31T10:44:05.201Z,14.25
2019-03-31T10:45:05.763Z,14.31
2019-03-31T10:46:06.254Z,14.31
2019-03-31T10:47:05.915Z,14.31
2019-03-31T10:48:19.136Z,14.38
2019-03-31T10:49:10.597Z,14.44
2019-03-31T10:50:05.521Z,14.50
2019-03-31T10:51:06.186Z,14.50
2019-03-31T10:52:05.754Z,14.50
2019-03-31T10:53:05.689Z,14.44
2019-03-31T10:54:05.542Z,14.31
2019-03-31T10:55:05.120Z,14.25
2019-03-31T10:56:06.740Z,14.19
2019-03-31T10:57:05.294Z,14.19
2019-03-31T10:58:05.837Z,14.12
2019-03-31T10:59:05.464Z,14.06
2019-03-31T11:00:05.676Z,14.12
2019-03-31T11:01:05.675Z,14.06
2019-03-31T11:02:05.518Z,14.06
2019-03-31T11:03:05.431Z,14.12
2019-03-31T11:04:05.841Z,14.12
2019-03-31T11:05:05.685Z,14.06
2019-03-31T11:06:06.064Z,14.12
2019-03-31T11:07:05.764Z,14.12
2019-03-31T11:08:05.199Z,14.12
2019-03-31T11:09:05.945Z,14.19
2019-03-31T11:10:06.155Z,14.25
2019-03-31T11:11:05.449Z,14.31
2019-03-31T11:12:06.206Z,14.31
2019-03-31T11:13:05.205Z,14.31
2019-03-31T11:14:05.673Z,14.31
2019-03-31T11:15:06.015Z,14.31
2019-03-31T11:16:05.266Z,14.31
2019-03-31T11:17:05.454Z,14.25
2019-03-31T11:18:05.765Z,14.19
2019-03-31T11:19:06.006Z,14.19
2019-03-31T11:20:06.084Z,14.19
2019-03-31T11:21:05.376Z,14.19
2019-03-31T11:22:05.918Z,14.25
2019-03-31T11:23:05.200Z,14.25
2019-03-31T11:24:05.458Z,14.25
2019-03-31T11:25:19.885Z,14.31
2019-03-31T11:26:05.188Z,14.31
2019-03-31T11:27:05.930Z,14.31
2019-03-31T11:28:05.841Z,14.31
2019-03-31T11:29:05.201Z,14.31
2019-03-31T11:30:05.931Z,14.31
2019-03-31T11:31:05.781Z,14.31
2019-03-31T11:32:06.164Z,14.38
2019-03-31T11:33:07.391Z,14.38
2019-03-31T11:34:05.437Z,14.44
2019-03-31T11:35:06.182Z,14.44
2019-03-31T11:36:05.203Z,14.44
2019-03-31T11:37:13.151Z,14.44
2019-03-31T11:38:05.682Z,14.44
2019-03-31T11:39:05.872Z,14.38
2019-03-31T11:40:05.193Z,14.38
2019-03-31T11:41:05.360Z,14.31
2019-03-31T11:42:06.121Z,14.31
2019-03-31T11:43:06.186Z,14.38
2019-03-31T11:44:05.600Z,14.44
2019-03-31T11:45:05.305Z,14.44
2019-03-31T11:46:05.263Z,14.44
2019-03-31T11:47:05.632Z,14.50
2019-03-31T11:48:05.142Z,14.50
2019-03-31T11:49:06.116Z,14.56
2019-03-31T11:50:05.594Z,14.50
2019-03-31T11:51:05.542Z,14.50
2019-03-31T11:52:06.022Z,14.56
2019-03-31T11:53:06.268Z,14.50
2019-03-31T11:54:05.213Z,14.50
2019-03-31T11:55:05.708Z,14.50
2019-03-31T11:56:05.213Z,14.44
2019-03-31T11:57:05.544Z,14.44
2019-03-31T11:58:05.371Z,14.44
2019-03-31T11:59:05.701Z,14.44
2019-03-31T12:00:06.182Z,14.38
2019-03-31T12:01:05.204Z,14.44
2019-03-31T12:02:05.599Z,14.44
2019-03-31T12:03:05.376Z,14.50
2019-03-31T12:04:05.768Z,14.56
2019-03-31T12:05:06.305Z,14.50
2019-03-31T12:06:05.706Z,14.56
2019-03-31T12:07:06.017Z,14.62
2019-03-31T12:08:05.304Z,14.69
2019-03-31T12:09:05.689Z,14.69
2019-03-31T12:10:05.452Z,14.75
2019-03-31T12:11:05.309Z,14.88
2019-03-31T12:12:05.846Z,14.81
2019-03-31T12:13:06.307Z,14.75
2019-03-31T12:14:05.446Z,14.81
2019-03-31T12:15:05.437Z,14.81
2019-03-31T12:16:05.849Z,14.81
2019-03-31T12:17:06.064Z,14.75
2019-03-31T12:18:06.020Z,14.69
2019-03-31T12:19:05.210Z,14.69
2019-03-31T12:20:06.163Z,14.69
2019-03-31T12:21:05.367Z,14.69
2019-03-31T12:22:05.840Z,14.75
2019-03-31T12:23:06.094Z,14.75
2019-03-31T12:24:05.381Z,14.75
2019-03-31T12:25:05.528Z,14.75
2019-03-31T12:26:05.943Z,14.75
2019-03-31T12:27:05.372Z,14.81
2019-03-31T12:28:05.598Z,14.88
2019-03-31T12:29:05.771Z,14.88
2019-03-31T12:30:05.602Z,14.94
2019-03-31T12:31:06.252Z,15.06
2019-03-31T12:32:05.846Z,15.19
2019-03-31T12:33:05.460Z,15.25
2019-03-31T12:34:05.616Z,15.25
2019-03-31T12:35:05.937Z,15.25
2019-03-31T12:36:05.115Z,15.19
2019-03-31T12:37:05.868Z,15.19
2019-03-31T12:38:05.514Z,15.06
2019-03-31T12:39:05.958Z,15.12
2019-03-31T12:40:05.363Z,15.06
2019-03-31T12:41:05.685Z,15.12
2019-03-31T12:42:06.085Z,15.06
2019-03-31T12:43:05.919Z,15.06
2019-03-31T12:44:05.298Z,15.06
2019-03-31T12:45:05.465Z,15.06
2019-03-31T12:46:05.871Z,15.12
2019-03-31T12:47:06.177Z,15.12
2019-03-31T12:48:05.923Z,15.12
2019-03-31T12:49:05.703Z,15.12
2019-03-31T12:50:05.203Z,15.12
2019-03-31T12:51:05.646Z,15.12
2019-03-31T12:52:06.013Z,15.12
2019-03-31T12:53:05.456Z,15.00
2019-03-31T12:54:05.767Z,15.00
2019-03-31T12:55:06.350Z,15.06
2019-03-31T12:56:05.691Z,15.06
2019-03-31T12:57:05.950Z,15.06
2019-03-31T12:58:06.170Z,15.00
2019-03-31T12:59:05.773Z,14.88
2019-03-31T13:00:05.370Z,14.81
2019-03-31T13:01:05.613Z,14.88
2019-03-31T13:02:05.774Z,14.88
2019-03-31T13:03:06.081Z,14.88
2019-03-31T13:04:05.448Z,14.88